createdAt,value
2023-03-02T00:00:02.226Z,1024.5
2023-03-02T00:01:02.056Z,1024.6
2023-03-02T00:02:02.097Z,1024.6
2023-03-02T00:03:02.215Z,1024.6
2023-03-02T00:04:02.305Z,1024.5
2023-03-02T00:05:02.117Z,1024.6
2023-03-02T00:06:02.117Z,1024.5
2023-03-02T00:07:01.884Z,1024.5
2023-03-02T00:08:01.928Z,1024.5
2023-03-02T00:09:01.715Z,1024.5
2023-03-02T00:10:01.859Z,1024.5
2023-03-02T00:11:02.713Z,1024.5
2023-03-02T00:12:02.556Z,1024.5
2023-03-02T00:13:02.629Z,1024.5
2023-03-02T00:14:02.458Z,1024.5
2023-03-02T00:15:02.534Z,1024.4
2023-03-02T00:16:02.803Z,1024.5
2023-03-02T00:17:02.224Z,1024.4
2023-03-02T00:18:02.175Z,1024.5
2023-03-02T00:19:02.075Z,1024.4
2023-03-02T00:20:02.054Z,1024.4
2023-03-02T00:21:01.913Z,1024.4
2023-03-02T00:22:01.837Z,1024.4
2023-03-02T00:23:01.736Z,1024.5
2023-03-02T00:24:02.786Z,1024.5
2023-03-02T00:25:02.648Z,1024.5
2023-03-02T00:26:02.698Z,1024.5
2023-03-02T00:27:02.575Z,1024.5
2023-03-02T00:28:02.546Z,1024.5
2023-03-02T00:29:02.431Z,1024.5
2023-03-02T00:30:02.561Z,1024.5
2023-03-02T00:31:02.631Z,1024.6
2023-03-02T00:32:02.513Z,1024.5
2023-03-02T00:33:02.431Z,1024.5
2023-03-02T00:34:02.523Z,1024.5
2023-03-02T00:35:02.264Z,1024.5
2023-03-02T00:36:02.657Z,1024.5
2023-03-02T00:37:02.549Z,1024.5
2023-03-02T00:38:02.373Z,1024.5
2023-03-02T00:39:02.403Z,1024.5
2023-03-02T00:40:02.317Z,1024.4
2023-03-02T00:41:02.128Z,1024.4
2023-03-02T00:42:02.137Z,1024.4
2023-03-02T00:43:01.938Z,1024.5
2023-03-02T00:44:01.928Z,1024.4
2023-03-02T00:45:01.829Z,1024.4
2023-03-02T00:46:01.798Z,1024.4
2023-03-02T00:47:02.821Z,1024.4
2023-03-02T00:48:02.618Z,1024.3
2023-03-02T00:49:02.661Z,1024.4
2023-03-02T00:50:02.551Z,1024.3
2023-03-02T00:51:02.546Z,1024.3
2023-03-02T00:52:02.471Z,1024.3
2023-03-02T00:53:02.338Z,1024.3
2023-03-02T00:54:02.368Z,1024.3
2023-03-02T00:55:02.323Z,1024.3
2023-03-02T00:56:02.182Z,1024.3
2023-03-02T00:57:02.183Z,1024.3
2023-03-02T00:58:01.967Z,1024.3
2023-03-02T00:59:01.992Z,1024.3
2023-03-02T01:00:01.918Z,1024.2
2023-03-02T01:01:01.815Z,1024.3
2023-03-02T01:02:02.908Z,1024.2
2023-03-02T01:03:02.909Z,1024.2
2023-03-02T01:04:02.765Z,1024.2
2023-03-02T01:05:02.698Z,1024.2
2023-03-02T01:06:02.716Z,1024.2
2023-03-02T01:07:02.546Z,1024.1
2023-03-02T01:08:02.597Z,1024.1
2023-03-02T01:09:02.475Z,1024.1
2023-03-02T01:10:02.514Z,1024.2
2023-03-02T01:11:02.530Z,1024.1
2023-03-02T01:12:02.293Z,1024.1
2023-03-02T01:13:02.385Z,1024.2
2023-03-02T01:14:02.329Z,1024.1
2023-03-02T01:15:02.273Z,1024.2
2023-03-02T01:16:02.609Z,1024.2
2023-03-02T01:17:02.289Z,1024.1
2023-03-02T01:18:02.191Z,1024.1
2023-03-02T01:19:02.259Z,1024.1
2023-03-02T01:20:02.117Z,1024.1
2023-03-02T01:21:02.222Z,1024.1
2023-03-02T01:22:02.202Z,1024.2
2023-03-02T01:23:02.002Z,1024.2
2023-03-02T01:24:02.046Z,1024.2
2023-03-02T01:25:01.849Z,1024.1
2023-03-02T01:26:01.888Z,1024.2
2023-03-02T01:27:01.714Z,1024.2
2023-03-02T01:28:02.803Z,1024.1
2023-03-02T01:29:02.640Z,1024.1
2023-03-02T01:30:02.712Z,1024.1
2023-03-02T01:31:02.525Z,1024.1
2023-03-02T01:32:03.049Z,1024.1
2023-03-02T01:33:01.864Z,1024.1
2023-03-02T01:34:01.766Z,1024.1
2023-03-02T01:35:02.805Z,1024.1
2023-03-02T01:36:03.052Z,1024.1
2023-03-02T01:37:01.846Z,1024.1
2023-03-02T01:38:01.745Z,1024.1
2023-03-02T01:39:02.760Z,1024.1
2023-03-02T01:40:02.607Z,1024
2023-03-02T01:41:02.683Z,1024
2023-03-02T01:42:02.519Z,1024
2023-03-02T01:43:02.478Z,1024
2023-03-02T01:44:02.454Z,1024
2023-03-02T01:45:02.388Z,1023.9
2023-03-02T01:46:02.692Z,1023.9
2023-03-02T01:47:02.243Z,1023.9
2023-03-02T01:48:02.150Z,1023.9
2023-03-02T01:49:02.223Z,1023.9
2023-03-02T01:50:02.079Z,1023.9
2023-03-02T01:51:02.115Z,1023.9
2023-03-02T01:52:01.914Z,1023.8
2023-03-02T01:53:04.106Z,1023.8
2023-03-02T01:54:02.545Z,1023.8
2023-03-02T01:55:02.409Z,1023.8
2023-03-02T01:56:02.365Z,1023.8
2023-03-02T01:57:02.366Z,1023.7
2023-03-02T01:58:02.216Z,1023.8
2023-03-02T01:59:02.280Z,1023.7
2023-03-02T02:00:02.192Z,1023.7
2023-03-02T02:01:02.309Z,1023.7
2023-03-02T02:02:02.532Z,1023.6
2023-03-02T02:03:02.326Z,1023.7
2023-03-02T02:04:02.548Z,1023.7
2023-03-02T02:05:02.369Z,1023.7
2023-03-02T02:06:02.206Z,1023.7
2023-03-02T02:07:02.282Z,1023.7
2023-03-02T02:08:02.061Z,1023.6
2023-03-02T02:09:02.128Z,1023.6
2023-03-02T02:10:01.964Z,1023.6
2023-03-02T02:11:01.891Z,1023.6
2023-03-02T02:12:01.768Z,1023.6
2023-03-02T02:13:01.844Z,1023.6
2023-03-02T02:14:02.729Z,1023.6
2023-03-02T02:15:02.610Z,1023.6
2023-03-02T02:16:02.670Z,1023.7
2023-03-02T02:17:02.300Z,1023.6
2023-03-02T02:18:02.139Z,1023.6
2023-03-02T02:19:02.188Z,1023.5
2023-03-02T02:20:01.966Z,1023.6
2023-03-02T02:21:01.936Z,1023.5
2023-03-02T02:22:01.769Z,1023.5
2023-03-02T02:23:01.834Z,1023.4
2023-03-02T02:24:03.035Z,1023.5
2023-03-02T02:25:01.727Z,1023.6
2023-03-02T02:26:02.777Z,1023.5
2023-03-02T02:27:02.627Z,1023.5
2023-03-02T02:28:02.815Z,1023.6
2023-03-02T02:29:02.548Z,1023.5
2023-03-02T02:30:02.562Z,1023.5
2023-03-02T02:31:02.474Z,1023.5
2023-03-02T02:32:02.389Z,1023.5
2023-03-02T02:33:02.307Z,1023.5
2023-03-02T02:34:02.311Z,1023.6
2023-03-02T02:35:02.218Z,1023.5
2023-03-02T02:36:02.499Z,1023.5
2023-03-02T02:37:02.501Z,1023.6
2023-03-02T02:38:02.235Z,1023.5
2023-03-02T02:39:02.274Z,1023.5
2023-03-02T02:40:02.123Z,1023.5
2023-03-02T02:41:02.178Z,1023.5
2023-03-02T02:42:01.955Z,1023.5
2023-03-02T02:43:02.000Z,1023.5
2023-03-02T02:44:01.802Z,1023.5
2023-03-02T02:45:01.845Z,1023.5
2023-03-02T02:46:03.063Z,1023.5
2023-03-02T02:47:01.753Z,1023.5
2023-03-02T02:48:01.781Z,1023.5
2023-03-02T02:49:02.773Z,1023.4
2023-03-02T02:50:02.665Z,1023.4
2023-03-02T02:51:02.737Z,1023.5
2023-03-02T02:52:02.683Z,1023.4
2023-03-02T02:53:02.646Z,1023.4
2023-03-02T02:54:02.867Z,1023.5
2023-03-02T02:55:02.683Z,1023.5
2023-03-02T02:56:02.589Z,1023.4
2023-03-02T02:57:02.626Z,1023.4
2023-03-02T02:58:02.661Z,1023.3
2023-03-02T02:59:02.528Z,1023.4
2023-03-02T03:00:02.498Z,1023.3
2023-03-02T03:01:02.918Z,1023.4
2023-03-02T03:02:02.228Z,1023.3
2023-03-02T03:03:02.304Z,1023.3
2023-03-02T03:04:02.614Z,1023.3
2023-03-02T03:05:02.366Z,1023.3
2023-03-02T03:06:02.419Z,1023.3
2023-03-02T03:07:02.330Z,1023.3
2023-03-02T03:08:02.278Z,1023.3
2023-03-02T03:09:02.439Z,1023.3
2023-03-02T03:10:02.652Z,1023.3
2023-03-02T03:11:02.417Z,1023.3
2023-03-02T03:12:02.485Z,1023.3
2023-03-02T03:13:02.461Z,1023.3
2023-03-02T03:14:02.344Z,1023.3
2023-03-02T03:15:02.449Z,1023.3
2023-03-02T03:16:02.356Z,1023.3
2023-03-02T03:17:02.031Z,1023.2
2023-03-02T03:18:01.808Z,1023.2
2023-03-02T03:19:01.699Z,1023.2
2023-03-02T03:20:02.770Z,1023.2
2023-03-02T03:21:02.630Z,1023.2
2023-03-02T03:22:02.746Z,1023.1
2023-03-02T03:23:02.616Z,1023.1
2023-03-02T03:24:02.688Z,1023.2
2023-03-02T03:25:02.556Z,1023.1
2023-03-02T03:26:02.587Z,1023.1
2023-03-02T03:27:02.428Z,1023.1
2023-03-02T03:28:02.461Z,1023.1
2023-03-02T03:29:02.484Z,1023.2
2023-03-02T03:30:02.367Z,1023.2
2023-03-02T03:31:02.550Z,1023.2
2023-03-02T03:32:02.352Z,1023.2
2023-03-02T03:33:02.123Z,1023.2
2023-03-02T03:34:02.166Z,1023.1
2023-03-02T03:35:01.923Z,1023.1
2023-03-02T03:36:02.171Z,1023.1
2023-03-02T03:37:02.386Z,1023.2
2023-03-02T03:38:02.181Z,1023.1
2023-03-02T03:39:02.143Z,1023.1
2023-03-02T03:40:01.947Z,1023.1
2023-03-02T03:41:02.035Z,1023.1
2023-03-02T03:42:01.803Z,1023.2
2023-03-02T03:43:01.798Z,1023.1
2023-03-02T03:44:01.718Z,1023.1
2023-03-02T03:45:02.755Z,1023.2
2023-03-02T03:46:02.772Z,1023.1
2023-03-02T03:47:02.537Z,1023.1
2023-03-02T03:48:02.679Z,1023.1
2023-03-02T03:49:02.473Z,1023.1
2023-03-02T03:50:02.512Z,1023.1
2023-03-02T03:51:02.385Z,1023.1
2023-03-02T03:52:02.226Z,1023.1
2023-03-02T03:53:04.472Z,1023.1
2023-03-02T03:54:02.307Z,1023.1
2023-03-02T03:55:02.097Z,1023
2023-03-02T03:56:02.154Z,1023.2
2023-03-02T03:57:01.953Z,1023.1
2023-03-02T03:58:01.955Z,1023
2023-03-02T03:59:01.820Z,1023
2023-03-02T04:00:01.900Z,1023.1
2023-03-02T04:01:01.795Z,1023.1
2023-03-02T04:02:01.782Z,1023.1
2023-03-02T04:03:01.848Z,1023.1
2023-03-02T04:04:01.681Z,1023.1
2023-03-02T04:05:01.773Z,1023.1
2023-03-02T04:06:02.752Z,1023.2
2023-03-02T04:07:02.609Z,1023.1
2023-03-02T04:08:02.802Z,1023.1
2023-03-02T04:09:02.551Z,1023.1
2023-03-02T04:10:02.631Z,1023.1
2023-03-02T04:11:02.447Z,1023.1
2023-03-02T04:12:02.464Z,1023.1
2023-03-02T04:13:02.431Z,1023.1
2023-03-02T04:14:02.284Z,1023.1
2023-03-02T04:15:02.289Z,1023.1
2023-03-02T04:16:02.436Z,1023.1
2023-03-02T04:17:02.080Z,1023
2023-03-02T04:18:02.125Z,1023
2023-03-02T04:19:01.952Z,1023
2023-03-02T04:20:02.078Z,1023.1
2023-03-02T04:21:01.785Z,1023.1
2023-03-02T04:22:01.834Z,1023.1
2023-03-02T04:23:01.737Z,1023.1
2023-03-02T04:24:01.803Z,1023.1
2023-03-02T04:25:02.757Z,1023.1
2023-03-02T04:26:02.609Z,1023
2023-03-02T04:27:02.671Z,1023.1
2023-03-02T04:28:02.534Z,1023.1
2023-03-02T04:29:02.571Z,1023
2023-03-02T04:30:02.549Z,1023
2023-03-02T04:31:02.501Z,1023
2023-03-02T04:32:02.328Z,1023
2023-03-02T04:33:02.282Z,1023
2023-03-02T04:34:02.100Z,1023
2023-03-02T04:35:02.137Z,1023
2023-03-02T04:36:02.139Z,1023
2023-03-02T04:37:01.996Z,1023
2023-03-02T04:38:01.784Z,1022.9
2023-03-02T04:39:01.846Z,1023
2023-03-02T04:40:01.673Z,1022.9
2023-03-02T04:41:02.764Z,1023
2023-03-02T04:42:02.654Z,1023
2023-03-02T04:43:02.686Z,1022.9
2023-03-02T04:44:02.584Z,1022.9
2023-03-02T04:45:02.645Z,1023
2023-03-02T04:46:02.547Z,1023
2023-03-02T04:47:02.458Z,1023
2023-03-02T04:48:02.486Z,1022.9
2023-03-02T04:49:02.448Z,1022.9
2023-03-02T04:50:02.402Z,1022.9
2023-03-02T04:51:02.318Z,1022.9
2023-03-02T04:52:02.268Z,1022.9
2023-03-02T04:53:02.111Z,1023
2023-03-02T04:54:02.153Z,1022.8
2023-03-02T04:55:01.971Z,1022.9
2023-03-02T04:56:01.932Z,1022.9
2023-03-02T04:57:01.749Z,1022.8
2023-03-02T04:58:01.822Z,1022.9
2023-03-02T04:59:01.716Z,1022.9
2023-03-02T05:00:01.881Z,1022.9
2023-03-02T05:01:01.742Z,1022.9
2023-03-02T05:02:02.110Z,1022.9
2023-03-02T05:03:01.932Z,1022.9
2023-03-02T05:04:03.707Z,1022.9
2023-03-02T05:05:02.554Z,1023
2023-03-02T05:06:02.558Z,1022.9
2023-03-02T05:07:02.396Z,1022.9
2023-03-02T05:08:02.433Z,1022.9
2023-03-02T05:09:02.363Z,1023
2023-03-02T05:10:02.211Z,1022.9
2023-03-02T05:11:02.205Z,1023
2023-03-02T05:12:02.044Z,1022.9
2023-03-02T05:13:02.050Z,1023
2023-03-02T05:14:01.835Z,1022.9
2023-03-02T05:15:01.956Z,1023
2023-03-02T05:16:02.040Z,1023
2023-03-02T05:17:02.103Z,1022.9
2023-03-02T05:18:02.136Z,1022.9
2023-03-02T05:19:01.987Z,1023
2023-03-02T05:20:02.051Z,1023
2023-03-02T05:21:01.836Z,1022.9
2023-03-02T05:22:01.911Z,1022.9
2023-03-02T05:23:01.799Z,1022.9
2023-03-02T05:24:01.905Z,1023
2023-03-02T05:25:01.756Z,1022.9
2023-03-02T05:26:01.815Z,1022.9
2023-03-02T05:27:02.787Z,1023
2023-03-02T05:28:02.620Z,1023
2023-03-02T05:29:02.656Z,1022.9
2023-03-02T05:30:02.563Z,1023
2023-03-02T05:31:02.739Z,1023
2023-03-02T05:32:02.738Z,1023
2023-03-02T05:33:02.520Z,1023
2023-03-02T05:34:02.530Z,1023
2023-03-02T05:35:02.500Z,1023
2023-03-02T05:36:02.563Z,1023
2023-03-02T05:37:02.383Z,1023
2023-03-02T05:38:02.332Z,1023
2023-03-02T05:39:02.138Z,1023
2023-03-02T05:40:02.169Z,1023
2023-03-02T05:41:01.975Z,1023
2023-03-02T05:42:02.088Z,1023
2023-03-02T05:43:01.818Z,1023.1
2023-03-02T05:44:01.826Z,1023
2023-03-02T05:45:02.786Z,1023
2023-03-02T05:46:02.660Z,1023
2023-03-02T05:47:02.690Z,1023.1
2023-03-02T05:48:02.712Z,1023
2023-03-02T05:49:02.635Z,1023
2023-03-02T05:50:02.667Z,1023.1
2023-03-02T05:51:02.498Z,1023.1
2023-03-02T05:52:02.535Z,1023.1
2023-03-02T05:53:02.929Z,1023
2023-03-02T05:54:02.727Z,1023.1
2023-03-02T05:55:02.766Z,1023.1
2023-03-02T05:56:02.616Z,1023.1
2023-03-02T05:57:02.650Z,1023.2
2023-03-02T05:58:02.563Z,1023.1
2023-03-02T05:59:02.593Z,1023.1
2023-03-02T06:00:02.556Z,1023.1
2023-03-02T06:01:02.350Z,1023.1
2023-03-02T06:02:02.643Z,1023.1
2023-03-02T06:03:02.854Z,1023.1
2023-03-02T06:04:02.808Z,1023.1
2023-03-02T06:05:02.606Z,1023.1
2023-03-02T06:06:02.611Z,1023.1
2023-03-02T06:07:02.501Z,1023.1
2023-03-02T06:08:02.217Z,1023.1
2023-03-02T06:09:02.016Z,1023.1
2023-03-02T06:10:02.095Z,1023.1
2023-03-02T06:11:01.904Z,1023.1
2023-03-02T06:12:01.889Z,1023.1
2023-03-02T06:13:01.824Z,1023.1
2023-03-02T06:14:01.846Z,1023.1
2023-03-02T06:15:01.785Z,1023.1
2023-03-02T06:16:02.032Z,1023.1
2023-03-02T06:17:02.563Z,1023.1
2023-03-02T06:18:02.391Z,1023.1
2023-03-02T06:19:02.451Z,1023.1
2023-03-02T06:20:02.407Z,1023.2
2023-03-02T06:21:02.340Z,1023.1
2023-03-02T06:22:02.275Z,1023.1
2023-03-02T06:23:02.131Z,1023.1
2023-03-02T06:24:02.096Z,1023.1
2023-03-02T06:25:01.974Z,1023.1
2023-03-02T06:26:02.021Z,1023.1
2023-03-02T06:27:01.967Z,1023.1
2023-03-02T06:28:01.821Z,1023.1
2023-03-02T06:29:01.756Z,1023.1
2023-03-02T06:30:01.865Z,1023.2
2023-03-02T06:31:01.728Z,1023.2
2023-03-02T06:32:03.158Z,1023.2
2023-03-02T06:33:01.971Z,1023.2
2023-03-02T06:34:01.847Z,1023.2
2023-03-02T06:35:02.108Z,1023.2
2023-03-02T06:36:02.442Z,1023.2
2023-03-02T06:37:02.230Z,1023.2
2023-03-02T06:38:02.272Z,1023.3
2023-03-02T06:39:02.075Z,1023.3
2023-03-02T06:40:02.034Z,1023.2
2023-03-02T06:41:01.891Z,1023.3
2023-03-02T06:42:01.925Z,1023.3
2023-03-02T06:43:04.827Z,1023.3
2023-03-02T06:44:02.599Z,1023.2
2023-03-02T06:45:02.635Z,1023.2
2023-03-02T06:46:02.735Z,1023.2
2023-03-02T06:47:02.704Z,1023.2
2023-03-02T06:48:02.744Z,1023.2
2023-03-02T06:49:02.522Z,1023.2
2023-03-02T06:50:02.574Z,1023.2
2023-03-02T06:51:02.372Z,1023.1
2023-03-02T06:52:02.436Z,1023.2
2023-03-02T06:53:02.383Z,1023.1
2023-03-02T06:54:02.341Z,1023.2
2023-03-02T06:55:02.210Z,1023.1
2023-03-02T06:56:02.068Z,1023.2
2023-03-02T06:57:02.044Z,1023.2
2023-03-02T06:58:01.868Z,1023.2
2023-03-02T06:59:01.877Z,1023.2
2023-03-02T07:00:01.812Z,1023.2
2023-03-02T07:01:02.001Z,1023.2
2023-03-02T07:02:01.807Z,1023.2
2023-03-02T07:03:01.859Z,1023.2
2023-03-02T07:04:01.927Z,1023.2
2023-03-02T07:05:02.748Z,1023.2
2023-03-02T07:06:02.699Z,1023.2
2023-03-02T07:07:02.678Z,1023.2
2023-03-02T07:08:02.547Z,1023.2
2023-03-02T07:09:02.580Z,1023.2
2023-03-02T07:10:02.566Z,1023.2
2023-03-02T07:11:02.545Z,1023.2
2023-03-02T07:12:02.454Z,1023.2
2023-03-02T07:13:02.320Z,1023.2
2023-03-02T07:14:02.352Z,1023.2
2023-03-02T07:15:02.261Z,1023.2
2023-03-02T07:16:02.096Z,1023.2
2023-03-02T07:17:02.219Z,1023.2
2023-03-02T07:18:02.055Z,1023.2
2023-03-02T07:19:01.913Z,1023.3
2023-03-02T07:20:01.874Z,1023.4
2023-03-02T07:21:01.770Z,1023.3
2023-03-02T07:22:01.865Z,1023.3
2023-03-02T07:23:01.806Z,1023.3
2023-03-02T07:24:01.852Z,1023.4
2023-03-02T07:25:01.692Z,1023.4
2023-03-02T07:26:01.839Z,1023.4
2023-03-02T07:27:02.795Z,1023.3
2023-03-02T07:28:02.636Z,1023.4
2023-03-02T07:29:02.700Z,1023.4
2023-03-02T07:30:02.538Z,1023.4
2023-03-02T07:31:02.968Z,1023.4
2023-03-02T07:32:02.238Z,1023.4
2023-03-02T07:33:02.085Z,1023.3
2023-03-02T07:34:01.905Z,1023.4
2023-03-02T07:35:02.066Z,1023.4
2023-03-02T07:36:01.895Z,1023.3
2023-03-02T07:37:01.889Z,1023.3
2023-03-02T07:38:01.783Z,1023.3
2023-03-02T07:39:01.769Z,1023.4
2023-03-02T07:40:02.832Z,1023.3
2023-03-02T07:41:02.628Z,1023.3
2023-03-02T07:42:02.695Z,1023.3
2023-03-02T07:43:02.556Z,1023.4
2023-03-02T07:44:02.632Z,1023.3
2023-03-02T07:45:02.471Z,1023.3
2023-03-02T07:46:02.530Z,1023.3
2023-03-02T07:47:02.706Z,1023.2
2023-03-02T07:48:02.590Z,1023.3
2023-03-02T07:49:02.676Z,1023.2
2023-03-02T07:50:02.575Z,1023.2
2023-03-02T07:51:02.601Z,1023.2
2023-03-02T07:52:02.411Z,1023.3
2023-03-02T07:53:02.429Z,1023.2
2023-03-02T07:54:02.428Z,1023.2
2023-03-02T07:55:02.249Z,1023.2
2023-03-02T07:56:02.198Z,1023.2
2023-03-02T07:57:02.116Z,1023.2
2023-03-02T07:58:02.148Z,1023.2
2023-03-02T07:59:01.946Z,1023.2
2023-03-02T08:00:02.016Z,1023.2
2023-03-02T08:01:01.829Z,1023.2
2023-03-02T08:02:01.960Z,1023.2
2023-03-02T08:03:02.077Z,1023.2
2023-03-02T08:04:01.846Z,1023.1
2023-03-02T08:05:01.820Z,1023.2
2023-03-02T08:06:01.740Z,1023.2
2023-03-02T08:07:02.817Z,1023.1
2023-03-02T08:08:02.689Z,1023.2
2023-03-02T08:09:02.733Z,1023.2
2023-03-02T08:10:02.610Z,1023.2
2023-03-02T08:11:02.644Z,1023.2
2023-03-02T08:12:02.455Z,1023.2
2023-03-02T08:13:02.629Z,1023.1
2023-03-02T08:14:02.471Z,1023.1
2023-03-02T08:15:05.381Z,1023.1
2023-03-02T08:16:02.373Z,1023.1
2023-03-02T08:17:02.123Z,1023.1
2023-03-02T08:18:02.205Z,1023.1
2023-03-02T08:19:01.977Z,1023.1
2023-03-02T08:20:02.045Z,1023.1
2023-03-02T08:21:01.817Z,1023.1
2023-03-02T08:22:01.913Z,1023.1
2023-03-02T08:23:01.772Z,1023.1
2023-03-02T08:24:03.171Z,1023.1
2023-03-02T08:25:01.931Z,1023.1
2023-03-02T08:26:01.970Z,1023.1
2023-03-02T08:27:01.817Z,1023.2
2023-03-02T08:28:01.843Z,1023.1
2023-03-02T08:29:01.776Z,1023.1
2023-03-02T08:30:01.907Z,1023.1
2023-03-02T08:31:02.727Z,1023.1
2023-03-02T08:32:03.026Z,1023.1
2023-03-02T08:33:07.594Z,1023.1
2023-03-02T08:34:02.464Z,1023.1
2023-03-02T08:35:02.277Z,1023.1
2023-03-02T08:36:02.533Z,1023.1
2023-03-02T08:37:02.377Z,1023.1
2023-03-02T08:38:02.256Z,1023.1
2023-03-02T08:39:02.329Z,1023.1
2023-03-02T08:40:02.132Z,1023.1
2023-03-02T08:41:02.142Z,1023
2023-03-02T08:42:02.001Z,1023
2023-03-02T08:43:01.978Z,1023.1
2023-03-02T08:44:01.774Z,1023.1
2023-03-02T08:45:01.838Z,1023
2023-03-02T08:46:01.927Z,1023
2023-03-02T08:47:01.802Z,1022.9
2023-03-02T08:48:01.882Z,1023
2023-03-02T08:49:01.758Z,1022.9
2023-03-02T08:50:01.925Z,1022.9
2023-03-02T08:51:02.761Z,1022.9
2023-03-02T08:52:02.582Z,1022.9
2023-03-02T08:53:02.616Z,1022.9
2023-03-02T08:54:02.433Z,1023
2023-03-02T08:55:04.887Z,1022.9
2023-03-02T08:56:02.724Z,1022.9
2023-03-02T08:57:02.689Z,1023
2023-03-02T08:58:02.660Z,1023
2023-03-02T08:59:02.548Z,1023
2023-03-02T09:00:02.579Z,1023
2023-03-02T09:01:02.658Z,1023
2023-03-02T09:02:02.487Z,1023
2023-03-02T09:03:02.452Z,1022.9
2023-03-02T09:04:02.679Z,1022.9
2023-03-02T09:05:02.458Z,1023
2023-03-02T09:06:02.505Z,1022.9
2023-03-02T09:07:02.677Z,1022.9
2023-03-02T09:08:02.418Z,1022.9
2023-03-02T09:09:02.550Z,1022.9
2023-03-02T09:10:02.450Z,1022.9
2023-03-02T09:11:02.222Z,1022.9
2023-03-02T09:12:02.337Z,1022.9
2023-03-02T09:13:02.240Z,1022.9
2023-03-02T09:14:02.238Z,1022.9
2023-03-02T09:15:02.292Z,1022.9
2023-03-02T09:16:02.042Z,1022.8
2023-03-02T09:17:02.284Z,1022.9
2023-03-02T09:18:02.189Z,1022.9
2023-03-02T09:19:01.997Z,1022.9
2023-03-02T09:20:02.063Z,1022.9
2023-03-02T09:21:01.900Z,1022.9
2023-03-02T09:22:01.884Z,1022.9
2023-03-02T09:23:01.764Z,1022.8
2023-03-02T09:24:01.857Z,1022.8
2023-03-02T09:25:02.812Z,1022.9
2023-03-02T09:26:02.674Z,1022.8
2023-03-02T09:27:02.660Z,1022.8
2023-03-02T09:28:02.495Z,1022.8
2023-03-02T09:29:02.559Z,1022.8
2023-03-02T09:30:02.425Z,1022.7
2023-03-02T09:31:02.464Z,1022.8
2023-03-02T09:32:02.919Z,1022.8
2023-03-02T09:33:02.290Z,1022.8
2023-03-02T09:34:02.238Z,1022.8
2023-03-02T09:35:02.061Z,1022.8
2023-03-02T09:36:02.086Z,1022.7
2023-03-02T09:37:01.920Z,1022.8
2023-03-02T09:38:02.362Z,1022.8
2023-03-02T09:39:02.085Z,1022.7
2023-03-02T09:40:02.491Z,1022.8
2023-03-02T09:41:02.328Z,1022.8
2023-03-02T09:42:02.094Z,1022.7
2023-03-02T09:43:02.088Z,1022.7
2023-03-02T09:44:02.026Z,1022.7
2023-03-02T09:45:02.087Z,1022.7
2023-03-02T09:46:02.328Z,1022.7
2023-03-02T09:47:01.796Z,1022.7
2023-03-02T09:48:01.788Z,1022.7
2023-03-02T09:49:04.552Z,1022.7
2023-03-02T09:50:02.304Z,1022.7
2023-03-02T09:51:02.321Z,1022.7
2023-03-02T09:52:02.266Z,1022.7
2023-03-02T09:53:02.116Z,1022.7
2023-03-02T09:54:02.264Z,1022.7
2023-03-02T09:55:02.128Z,1022.7
2023-03-02T09:56:02.101Z,1022.7
2023-03-02T09:57:01.818Z,1022.7
2023-03-02T09:58:01.819Z,1022.7
2023-03-02T09:59:01.750Z,1022.7
2023-03-02T10:00:20.366Z,1022.7
2023-03-02T10:01:02.325Z,1022.6
2023-03-02T10:02:02.599Z,1022.6
2023-03-02T10:03:18.021Z,1022.6
2023-03-02T10:04:02.242Z,1022.7
2023-03-02T10:05:02.170Z,1022.6
2023-03-02T10:06:02.071Z,1022.6
2023-03-02T10:07:02.000Z,1022.7
2023-03-02T10:08:01.824Z,1022.7
2023-03-02T10:09:01.864Z,1022.6
2023-03-02T10:10:01.781Z,1022.6
2023-03-02T10:11:01.844Z,1022.6
2023-03-02T10:12:01.827Z,1022.6
2023-03-02T10:13:02.790Z,1022.6
2023-03-02T10:14:02.650Z,1022.6
2023-03-02T10:15:02.743Z,1022.6
2023-03-02T10:16:03.030Z,1022.6
2023-03-02T10:17:02.744Z,1022.6
2023-03-02T10:18:02.878Z,1022.7
2023-03-02T10:19:05.986Z,1022.6
2023-03-02T10:20:01.734Z,1022.6
2023-03-02T10:21:02.906Z,1022.6
2023-03-02T10:22:02.685Z,1022.5
2023-03-02T10:23:02.738Z,1022.6
2023-03-02T10:24:02.562Z,1022.6
2023-03-02T10:25:02.648Z,1022.5
2023-03-02T10:26:02.491Z,1022.5
2023-03-02T10:27:02.553Z,1022.5
2023-03-02T10:28:02.518Z,1022.4
2023-03-02T10:29:02.408Z,1022.4
2023-03-02T10:30:02.488Z,1022.5
2023-03-02T10:31:05.863Z,1022.5
2023-03-02T10:32:02.842Z,1022.4
2023-03-02T10:33:02.699Z,1022.4
2023-03-02T10:34:02.613Z,1022.4
2023-03-02T10:35:02.751Z,1022.4
2023-03-02T10:36:02.497Z,1022.4
2023-03-02T10:37:02.546Z,1022.4
2023-03-02T10:38:02.510Z,1022.3
2023-03-02T10:39:02.353Z,1022.3
2023-03-02T10:40:02.425Z,1022.3
2023-03-02T10:41:02.338Z,1022.3
2023-03-02T10:42:02.293Z,1022.2
2023-03-02T10:43:02.312Z,1022.3
2023-03-02T10:44:02.052Z,1022.2
2023-03-02T10:45:02.124Z,1022.3
2023-03-02T10:46:02.248Z,1022.2
2023-03-02T10:47:01.909Z,1022.2
2023-03-02T10:48:01.909Z,1022.2
2023-03-02T10:49:01.862Z,1022.2
2023-03-02T10:50:01.882Z,1022.2
2023-03-02T10:51:01.765Z,1022.2
2023-03-02T10:52:01.826Z,1022.2
2023-03-02T10:53:05.597Z,1022.2
2023-03-02T10:54:02.343Z,1022.1
2023-03-02T10:55:02.354Z,1022.1
2023-03-02T10:56:02.299Z,1022.1
2023-03-02T10:57:02.261Z,1022.1
2023-03-02T10:58:02.153Z,1022.1
2023-03-02T10:59:02.082Z,1022.1
2023-03-02T11:00:02.116Z,1022.1
2023-03-02T11:01:01.988Z,1022
2023-03-02T11:02:02.217Z,1022
2023-03-02T11:03:02.092Z,1022
2023-03-02T11:04:01.881Z,1022
2023-03-02T11:05:02.166Z,1022
2023-03-02T11:06:01.976Z,1021.9
2023-03-02T11:07:02.012Z,1022
2023-03-02T11:08:01.838Z,1022
2023-03-02T11:09:01.880Z,1021.9
2023-03-02T11:10:01.748Z,1021.9
2023-03-02T11:11:02.770Z,1022
2023-03-02T11:12:03.015Z,1021.9
2023-03-02T11:13:02.037Z,1021.9
2023-03-02T11:14:01.768Z,1021.9
2023-03-02T11:15:01.869Z,1021.8
2023-03-02T11:16:02.016Z,1021.8
2023-03-02T11:17:03.865Z,1021.8
2023-03-02T11:18:02.723Z,1021.9
2023-03-02T11:19:02.609Z,1021.9
2023-03-02T11:20:02.649Z,1021.8
2023-03-02T11:21:02.468Z,1021.8
2023-03-02T11:22:02.517Z,1021.8
2023-03-02T11:23:02.391Z,1021.8
2023-03-02T11:24:02.242Z,1021.8
2023-03-02T11:25:02.248Z,1021.8
2023-03-02T11:26:02.283Z,1021.8
2023-03-02T11:27:02.050Z,1021.8
2023-03-02T11:28:02.170Z,1021.7
2023-03-02T11:29:01.966Z,1021.7
2023-03-02T11:30:02.027Z,1021.7
2023-03-02T11:31:02.049Z,1021.7
2023-03-02T11:32:02.390Z,1021.6
2023-03-02T11:33:02.356Z,1021.7
2023-03-02T11:34:18.694Z,1021.6
2023-03-02T11:35:02.510Z,1021.7
2023-03-02T11:36:02.714Z,1021.7
2023-03-02T11:37:02.654Z,1021.7
2023-03-02T11:38:02.445Z,1021.6
2023-03-02T11:39:02.482Z,1021.6
2023-03-02T11:40:02.446Z,1021.6
2023-03-02T11:41:02.268Z,1021.6
2023-03-02T11:42:02.520Z,1021.6
2023-03-02T11:43:02.396Z,1021.6
2023-03-02T11:44:02.177Z,1021.6
2023-03-02T11:45:02.173Z,1021.6
2023-03-02T11:46:08.702Z,1021.5
2023-03-02T11:47:02.612Z,1021.5
2023-03-02T11:48:04.545Z,1021.5
2023-03-02T11:49:02.375Z,1021.4
2023-03-02T11:50:02.270Z,1021.4
2023-03-02T11:51:02.310Z,1021.4
2023-03-02T11:52:02.256Z,1021.5
2023-03-02T11:53:02.095Z,1021.4
2023-03-02T11:54:02.265Z,1021.4
2023-03-02T11:55:01.996Z,1021.4
2023-03-02T11:56:02.037Z,1021.4
2023-03-02T11:57:01.880Z,1021.4
2023-03-02T11:59:01.814Z,1021.4
2023-03-02T12:00:01.855Z,1021.4
2023-03-02T12:01:01.730Z,1021.3
2023-03-02T12:02:02.605Z,1021.4
2023-03-02T12:03:02.714Z,1021.3
2023-03-02T12:04:02.552Z,1021.4
2023-03-02T12:05:02.875Z,1021.3
2023-03-02T12:06:07.163Z,1021.3
2023-03-02T12:07:02.105Z,1021.3
2023-03-02T12:08:02.065Z,1021.3
2023-03-02T12:09:02.074Z,1021.3
2023-03-02T12:10:02.029Z,1021.2
2023-03-02T12:11:01.864Z,1021.2
2023-03-02T12:12:01.952Z,1021.3
2023-03-02T12:13:01.793Z,1021.2
2023-03-02T12:14:01.884Z,1021.2
2023-03-02T12:15:01.743Z,1021.2
2023-03-02T12:16:03.045Z,1021.2
2023-03-02T12:17:01.866Z,1021.2
2023-03-02T12:18:01.975Z,1021.1
2023-03-02T12:19:01.757Z,1021.1
2023-03-02T12:20:02.870Z,1021.2
2023-03-02T12:21:02.726Z,1021.1
2023-03-02T12:22:02.861Z,1021.1
2023-03-02T12:23:02.638Z,1021.1
2023-03-02T12:24:02.806Z,1021.1
2023-03-02T12:25:02.717Z,1021.1
2023-03-02T12:26:03.185Z,1021.1
2023-03-02T12:27:01.937Z,1021.1
2023-03-02T12:28:01.933Z,1021
2023-03-02T12:29:01.796Z,1021
2023-03-02T12:30:01.960Z,1021.1
2023-03-02T12:31:01.775Z,1021
2023-03-02T12:32:03.042Z,1021
2023-03-02T12:33:01.997Z,1021
2023-03-02T12:34:01.826Z,1021